Time;durP1;ratioP1;P1;durP2;ratioP2;P2;SDS_P1;SDS_P2;PMS_P1;PMS_P2;Temp;Humidity;BMP_temperature;BMP_pressure;BME280_temperature;BME280_humidity;BME280_pressure;Samples;Min_cycle;Max_cycle;Signal;HPM_P1;HPM_P2
2024/01/16 00:02:20;;;;;;;5.32;1.40;;;;;;;;;;4972276;28;20076;-75
2024/01/16 00:04:46;;;;;;;4.60;1.40;;;;;;;;;;4992364;28;20073;-75
2024/01/16 00:07:11;;;;;;;4.22;1.25;;;;;;;;;;4994136;28;20488;-75
2024/01/16 00:09:36;;;;;;;5.20;1.33;;;;;;;;;;4996673;28;20030;-75
2024/01/16 00:12:02;;;;;;;5.38;1.45;;;;;;;;;;4997931;28;20041;-75
2024/01/16 00:14:27;;;;;;;5.32;1.50;;;;;;;;;;4998257;28;20053;-75
2024/01/16 00:16:52;;;;;;;6.07;1.70;;;;;;;;;;4997925;28;20038;-75
2024/01/16 00:19:18;;;;;;;4.05;1.27;;;;;;;;;;4995070;28;20035;-74
2024/01/16 00:21:45;;;;;;;5.75;1.50;;;;;;;;;;4994110;28;20049;-75
2024/01/16 00:24:10;;;;;;;8.45;1.50;;;;;;;;;;4994978;28;20041;-75
2024/01/16 00:26:36;;;;;;;7.85;1.38;;;;;;;;;;4997535;28;20402;-75
2024/01/16 00:29:01;;;;;;;4.15;1.45;;;;;;;;;;5001641;28;20033;-75
2024/01/16 00:31:26;;;;;;;8.80;1.45;;;;;;;;;;4997180;28;20038;-75
2024/01/16 00:33:51;;;;;;;3.47;1.35;;;;;;;;;;4993110;28;20519;-75
2024/01/16 00:36:16;;;;;;;6.10;1.58;;;;;;;;;;4994689;28;20037;-75
2024/01/16 00:38:41;;;;;;;10.32;1.52;;;;;;;;;;4999508;28;20056;-74
2024/01/16 00:41:07;;;;;;;5.25;1.17;;;;;;;;;;4996574;28;20528;-75
2024/01/16 00:43:32;;;;;;;6.55;1.40;;;;;;;;;;4998907;28;20026;-76
2024/01/16 00:45:57;;;;;;;6.72;1.27;;;;;;;;;;4994510;28;20458;-78
2024/01/16 00:48:22;;;;;;;5.45;1.42;;;;;;;;;;4996149;28;20038;-77
2024/01/16 00:50:49;;;;;;;10.13;1.58;;;;;;;;;;4996870;28;20521;-78
2024/01/16 00:53:15;;;;;;;6.82;1.40;;;;;;;;;;4986730;28;20048;-78
2024/01/16 00:55:41;;;;;;;3.00;1.20;;;;;;;;;;4999178;28;20117;-77
2024/01/16 00:58:06;;;;;;;5.60;1.25;;;;;;;;;;4999361;28;20110;-77
2024/01/16 01:00:31;;;;;;;4.00;1.58;;;;;;;;;;4991155;28;20046;-76
2024/01/16 01:02:58;;;;;;;7.07;1.95;;;;;;;;;;4993744;28;20070;-76
2024/01/16 01:05:28;;;;;;;8.32;1.38;;;;;;;;;;4994394;28;20042;-76
2024/01/16 01:07:53;;;;;;;5.25;1.30;;;;;;;;;;4998352;28;20053;-77
2024/01/16 01:10:18;;;;;;;7.28;1.30;;;;;;;;;;4996866;28;20510;-76
2024/01/16 01:12:43;;;;;;;7.85;1.63;;;;;;;;;;4996346;28;20034;-76
2024/01/16 01:15:08;;;;;;;5.22;1.38;;;;;;;;;;4997591;28;20081;-76
2024/01/16 01:17:34;;;;;;;7.63;1.63;;;;;;;;;;4993423;28;20022;-76
2024/01/16 01:19:59;;;;;;;3.42;1.27;;;;;;;;;;4996236;28;20108;-76
2024/01/16 01:22:24;;;;;;;3.97;1.23;;;;;;;;;;4995854;28;20034;-76
2024/01/16 01:24:49;;;;;;;5.68;1.60;;;;;;;;;;5000665;28;20113;-76
2024/01/16 01:27:15;;;;;;;4.13;1.40;;;;;;;;;;4994497;28;20433;-76
2024/01/16 01:29:40;;;;;;;6.05;1.80;;;;;;;;;;4994763;28;20031;-76
2024/01/16 01:32:05;;;;;;;4.72;1.60;;;;;;;;;;4994816;28;20670;-77
2024/01/16 01:34:30;;;;;;;4.10;1.60;;;;;;;;;;4996739;28;20035;-76
2024/01/16 01:36:57;;;;;;;6.45;1.58;;;;;;;;;;5002586;28;20495;-77
2024/01/16 01:39:23;;;;;;;7.53;2.00;;;;;;;;;;4985115;28;20038;-77
2024/01/16 01:41:48;;;;;;;6.50;1.90;;;;;;;;;;5001272;28;20034;-76
2024/01/16 01:44:15;;;;;;;10.82;2.30;;;;;;;;;;5000670;28;20031;-77
2024/01/16 01:46:41;;;;;;;4.18;1.80;;;;;;;;;;4987000;28;20509;-76
2024/01/16 01:49:07;;;;;;;8.70;2.45;;;;;;;;;;5000935;28;20401;-76
2024/01/16 01:51:33;;;;;;;5.88;2.10;;;;;;;;;;5001264;28;20038;-76
2024/01/16 01:53:59;;;;;;;5.40;1.90;;;;;;;;;;4999682;28;20035;-76
2024/01/16 01:56:24;;;;;;;7.43;2.28;;;;;;;;;;4994786;28;20141;-76
2024/01/16 01:58:51;;;;;;;6.47;2.20;;;;;;;;;;4996552;28;20126;-76
2024/01/16 02:01:17;;;;;;;6.63;2.50;;;;;;;;;;4997245;28;20030;-76
2024/01/16 02:03:43;;;;;;;7.07;2.03;;;;;;;;;;4999961;28;20029;-76
2024/01/16 02:06:09;;;;;;;7.75;2.50;;;;;;;;;;5001045;28;20038;-76
2024/01/16 02:08:35;;;;;;;4.60;2.05;;;;;;;;;;4997905;28;20116;-76
2024/01/16 02:11:00;;;;;;;6.30;2.00;;;;;;;;;;4995586;28;20064;-76
2024/01/16 02:13:25;;;;;;;5.35;1.98;;;;;;;;;;4995764;28;20110;-76
2024/01/16 02:15:50;;;;;;;8.88;2.55;;;;;;;;;;4999809;28;20034;-76
2024/01/16 02:18:16;;;;;;;6.55;2.60;;;;;;;;;;4998283;28;20038;-76
2024/01/16 02:20:42;;;;;;;6.05;2.28;;;;;;;;;;5002373;28;20030;-75
2024/01/16 02:23:07;;;;;;;6.30;1.95;;;;;;;;;;4994635;28;20045;-76
2024/01/16 02:25:32;;;;;;;7.38;2.20;;;;;;;;;;4994835;28;20027;-75
2024/01/16 02:27:57;;;;;;;7.93;2.45;;;;;;;;;;4997692;28;20525;-75
2024/01/16 02:30:22;;;;;;;3.88;2.05;;;;;;;;;;4976838;28;20031;-76
2024/01/16 02:32:47;;;;;;;5.65;2.45;;;;;;;;;;5000944;28;20489;-76
2024/01/16 02:35:13;;;;;;;5.60;2.25;;;;;;;;;;5000753;28;20054;-75
2024/01/16 02:37:38;;;;;;;7.47;2.42;;;;;;;;;;4993469;28;20403;-76
2024/01/16 02:40:06;;;;;;;6.20;2.08;;;;;;;;;;4983234;28;20030;-76
2024/01/16 02:42:31;;;;;;;5.90;2.22;;;;;;;;;;4996091;28;20779;-76
2024/01/16 02:44:57;;;;;;;5.53;2.08;;;;;;;;;;4998729;28;20057;-76
2024/01/16 02:47:22;;;;;;;7.25;2.03;;;;;;;;;;4998682;28;20104;-76
2024/01/16 02:49:47;;;;;;;4.60;1.80;;;;;;;;;;4999520;28;20427;-76
2024/01/16 02:52:13;;;;;;;6.45;2.20;;;;;;;;;;4993886;28;20042;-76
2024/01/16 02:54:38;;;;;;;6.00;2.50;;;;;;;;;;4984238;28;20088;-76
2024/01/16 02:57:03;;;;;;;5.88;2.10;;;;;;;;;;4996540;28;20038;-75
2024/01/16 02:59:30;;;;;;;6.10;1.70;;;;;;;;;;4997233;28;20026;-76
2024/01/16 03:01:55;;;;;;;6.82;2.00;;;;;;;;;;4992115;28;20418;-76
2024/01/16 03:04:20;;;;;;;3.17;1.50;;;;;;;;;;4996111;28;20026;-76
2024/01/16 03:06:46;;;;;;;3.83;1.60;;;;;;;;;;4994832;28;20037;-76
2024/01/16 03:09:12;;;;;;;4.25;1.42;;;;;;;;;;4994749;28;20022;-76
2024/01/16 03:11:37;;;;;;;5.88;1.50;;;;;;;;;;4996780;28;20069;-76
2024/01/16 03:14:03;;;;;;;6.95;1.67;;;;;;;;;;4999775;28;20045;-76
2024/01/16 03:16:28;;;;;;;4.80;1.60;;;;;;;;;;4982273;28;20053;-76
2024/01/16 03:18:54;;;;;;;6.50;1.20;;;;;;;;;;4994969;28;20054;-76
2024/01/16 03:21:19;;;;;;;4.15;1.50;;;;;;;;;;4996263;28;20038;-76
2024/01/16 03:23:44;;;;;;;5.90;2.00;;;;;;;;;;4995162;28;20041;-76
2024/01/16 03:26:13;;;;;;;5.15;1.40;;;;;;;;;;4993962;28;20018;-76
2024/01/16 03:28:38;;;;;;;5.30;1.02;;;;;;;;;;5004314;28;20035;-77
2024/01/16 03:31:03;;;;;;;4.68;1.30;;;;;;;;;;4999169;28;20513;-76
2024/01/16 03:33:29;;;;;;;4.88;1.30;;;;;;;;;;4992569;28;20092;-76
2024/01/16 03:35:54;;;;;;;6.60;1.17;;;;;;;;;;4995401;28;20046;-77
2024/01/16 03:38:19;;;;;;;3.72;1.10;;;;;;;;;;4995118;28;20061;-76
2024/01/16 03:40:44;;;;;;;4.80;1.17;;;;;;;;;;4998250;28;20406;-76
2024/01/16 03:43:09;;;;;;;4.80;1.08;;;;;;;;;;4999071;28;20033;-76
2024/01/16 03:45:35;;;;;;;3.83;1.00;;;;;;;;;;4982358;28;20030;-76
2024/01/16 03:48:00;;;;;;;3.92;1.15;;;;;;;;;;4995408;28;20026;-77
2024/01/16 03:50:25;;;;;;;6.60;0.98;;;;;;;;;;4993832;28;20022;-77
2024/01/16 03:52:50;;;;;;;2.97;0.77;;;;;;;;;;4997109;28;20472;-78
2024/01/16 03:55:15;;;;;;;6.28;0.90;;;;;;;;;;4997009;28;20026;-78
2024/01/16 03:57:42;;;;;;;3.67;0.80;;;;;;;;;;4997980;28;20113;-77
2024/01/16 04:00:07;;;;;;;4.43;0.95;;;;;;;;;;4995242;28;20030;-78
2024/01/16 04:02:32;;;;;;;2.85;1.00;;;;;;;;;;4992933;28;20418;-78
2024/01/16 04:04:57;;;;;;;6.88;1.80;;;;;;;;;;4995354;28;20080;-78
2024/01/16 04:07:23;;;;;;;3.45;1.23;;;;;;;;;;4975182;28;20035;-77
2024/01/16 04:09:48;;;;;;;8.18;1.65;;;;;;;;;;4998804;28;20030;-77
2024/01/16 04:12:14;;;;;;;3.25;1.08;;;;;;;;;;4998862;28;20060;-78
2024/01/16 04:14:39;;;;;;;2.20;0.80;;;;;;;;;;4966990;28;20510;-77
2024/01/16 04:17:05;;;;;;;4.85;1.50;;;;;;;;;;4990924;28;20034;-77
2024/01/16 04:19:33;;;;;;;5.75;1.55;;;;;;;;;;4993779;28;20030;-78
2024/01/16 04:21:58;;;;;;;7.65;1.60;;;;;;;;;;4997908;28;20061;-77
2024/01/16 04:24:23;;;;;;;3.60;1.10;;;;;;;;;;4996942;28;20069;-76
2024/01/16 04:26:50;;;;;;;2.55;0.93;;;;;;;;;;4998211;28;20479;-76
2024/01/16 04:29:15;;;;;;;5.18;1.48;;;;;;;;;;4974451;28;20109;-76
2024/01/16 04:31:43;;;;;;;5.53;1.58;;;;;;;;;;4993177;28;20503;-76
2024/01/16 04:34:08;;;;;;;7.43;1.90;;;;;;;;;;4992866;28;20501;-76
2024/01/16 04:36:33;;;;;;;4.65;2.00;;;;;;;;;;4990635;28;20034;-76
2024/01/16 04:38:59;;;;;;;5.00;1.27;;;;;;;;;;4996538;28;20045;-77
2024/01/16 04:41:24;;;;;;;3.97;1.25;;;;;;;;;;4994372;28;20062;-76
2024/01/16 04:43:50;;;;;;;6.65;1.80;;;;;;;;;;4974720;28;20037;-76
2024/01/16 04:46:15;;;;;;;5.35;1.95;;;;;;;;;;4979348;28;20061;-76
2024/01/16 04:48:41;;;;;;;3.70;1.50;;;;;;;;;;5000245;28;20048;-76
2024/01/16 04:51:07;;;;;;;6.13;1.23;;;;;;;;;;4996776;28;20030;-77
2024/01/16 04:53:32;;;;;;;3.15;1.40;;;;;;;;;;4997805;28;20096;-76
2024/01/16 04:55:57;;;;;;;5.18;1.63;;;;;;;;;;4994266;28;20042;-77
2024/01/16 04:58:23;;;;;;;4.25;1.60;;;;;;;;;;4993299;28;20050;-76
2024/01/16 05:00:48;;;;;;;8.38;1.48;;;;;;;;;;5000963;28;20038;-77
2024/01/16 05:03:14;;;;;;;6.23;1.93;;;;;;;;;;4994590;28;20480;-77
2024/01/16 05:05:39;;;;;;;7.00;1.50;;;;;;;;;;4997618;28;20496;-77
2024/01/16 05:08:04;;;;;;;7.68;1.48;;;;;;;;;;4997727;28;20165;-76
2024/01/16 05:10:30;;;;;;;7.15;2.40;;;;;;;;;;4996681;28;20121;-77
2024/01/16 05:12:55;;;;;;;4.55;1.75;;;;;;;;;;4997418;28;20034;-76
2024/01/16 05:15:20;;;;;;;5.30;1.83;;;;;;;;;;4980173;28;20570;-76
2024/01/16 05:17:46;;;;;;;6.78;1.67;;;;;;;;;;4999626;28;20031;-76
2024/01/16 05:20:11;;;;;;;5.03;1.77;;;;;;;;;;4996515;28;20037;-76
2024/01/16 05:22:38;;;;;;;3.05;1.50;;;;;;;;;;5001045;28;20101;-76
2024/01/16 05:25:03;;;;;;;2.97;1.08;;;;;;;;;;4995920;28;20118;-75
2024/01/16 05:27:28;;;;;;;10.55;4.20;;;;;;;;;;4996628;28;20457;-76
2024/01/16 05:29:54;;;;;;;5.15;1.30;;;;;;;;;;4999186;28;20121;-77
2024/01/16 05:32:19;;;;;;;5.18;1.25;;;;;;;;;;4992554;28;20133;-76
2024/01/16 05:34:45;;;;;;;2.33;1.10;;;;;;;;;;4998956;28;20034;-76
2024/01/16 05:37:10;;;;;;;3.78;1.05;;;;;;;;;;5004641;28;20100;-76
2024/01/16 05:39:36;;;;;;;3.97;0.80;;;;;;;;;;4984508;28;20026;-77
2024/01/16 05:42:02;;;;;;;4.15;1.15;;;;;;;;;;4995605;28;20037;-76
2024/01/16 05:44:27;;;;;;;7.32;1.33;;;;;;;;;;4996514;28;20043;-77
2024/01/16 05:46:52;;;;;;;4.22;0.90;;;;;;;;;;4998046;28;20030;-77
2024/01/16 05:49:18;;;;;;;2.92;0.93;;;;;;;;;;4999926;28;20030;-77
2024/01/16 05:51:43;;;;;;;4.22;0.90;;;;;;;;;;5002608;28;20057;-76
2024/01/16 05:54:08;;;;;;;5.80;1.23;;;;;;;;;;4997276;28;20085;-76
2024/01/16 05:56:34;;;;;;;6.20;0.98;;;;;;;;;;4999553;28;20410;-76
2024/01/16 05:58:59;;;;;;;4.47;0.70;;;;;;;;;;4997821;28;20045;-77
2024/01/16 06:01:24;;;;;;;1.55;0.50;;;;;;;;;;5002756;28;20049;-77
2024/01/16 06:03:49;;;;;;;3.75;1.20;;;;;;;;;;5003985;28;20554;-77
2024/01/16 06:06:15;;;;;;;4.32;1.38;;;;;;;;;;4999248;28;20118;-77
2024/01/16 06:08:40;;;;;;;2.70;0.95;;;;;;;;;;4982007;28;20040;-77
2024/01/16 06:11:05;;;;;;;2.92;0.80;;;;;;;;;;4999913;28;20031;-77
2024/01/16 06:13:31;;;;;;;4.20;0.77;;;;;;;;;;4997869;28;20450;-77
2024/01/16 06:15:57;;;;;;;3.22;0.90;;;;;;;;;;4980946;28;20034;-77
2024/01/16 06:18:23;;;;;;;5.85;1.27;;;;;;;;;;4998847;28;20086;-77
2024/01/16 06:20:48;;;;;;;2.63;0.80;;;;;;;;;;4993954;28;20415;-77
2024/01/16 06:23:13;;;;;;;6.95;1.20;;;;;;;;;;4996491;28;20034;-77
2024/01/16 06:25:38;;;;;;;4.45;0.95;;;;;;;;;;4968204;28;20038;-77
2024/01/16 06:28:05;;;;;;;2.55;0.90;;;;;;;;;;4999744;28;20030;-77
2024/01/16 06:30:30;;;;;;;4.93;0.98;;;;;;;;;;4999440;28;20034;-77
2024/01/16 06:32:55;;;;;;;5.35;1.23;;;;;;;;;;4996416;28;20038;-77
2024/01/16 06:35:20;;;;;;;4.28;1.23;;;;;;;;;;4994171;28;20031;-77
2024/01/16 06:37:45;;;;;;;3.00;0.93;;;;;;;;;;4995804;28;20665;-77
2024/01/16 06:40:11;;;;;;;3.78;1.08;;;;;;;;;;4997461;28;20034;-77
2024/01/16 06:42:36;;;;;;;3.67;1.10;;;;;;;;;;5004012;28;20537;-77
2024/01/16 06:45:02;;;;;;;2.80;1.00;;;;;;;;;;4994439;28;20092;-77
2024/01/16 06:47:27;;;;;;;5.38;1.25;;;;;;;;;;5000774;28;20066;-77
2024/01/16 06:49:52;;;;;;;11.27;1.27;;;;;;;;;;5003309;28;20062;-77
2024/01/16 06:52:18;;;;;;;6.50;1.20;;;;;;;;;;4982152;28;20112;-77
2024/01/16 06:54:43;;;;;;;3.15;0.80;;;;;;;;;;4997366;28;20030;-77
2024/01/16 06:57:08;;;;;;;2.88;1.08;;;;;;;;;;5001675;28;20556;-77
2024/01/16 06:59:33;;;;;;;6.55;1.42;;;;;;;;;;4998696;28;20035;-77
2024/01/16 07:01:58;;;;;;;6.38;1.55;;;;;;;;;;4993554;28;20124;-77
2024/01/16 07:04:23;;;;;;;7.43;1.25;;;;;;;;;;4992082;28;20573;-77
2024/01/16 07:06:49;;;;;;;3.50;1.27;;;;;;;;;;4980103;28;20117;-77
2024/01/16 07:09:15;;;;;;;4.95;1.50;;;;;;;;;;4997217;28;20426;-77
2024/01/16 07:11:42;;;;;;;7.40;1.88;;;;;;;;;;4999873;28;20034;-77
2024/01/16 07:14:07;;;;;;;4.18;1.55;;;;;;;;;;4998036;28;20038;-77
2024/01/16 07:16:33;;;;;;;4.43;1.55;;;;;;;;;;4993763;28;20040;-77
2024/01/16 07:18:58;;;;;;;7.50;1.60;;;;;;;;;;4996644;28;20073;-77
2024/01/16 07:21:23;;;;;;;4.35;1.30;;;;;;;;;;4998139;28;20038;-77
2024/01/16 07:23:48;;;;;;;5.90;1.30;;;;;;;;;;4999088;28;20061;-77
2024/01/16 07:26:14;;;;;;;3.78;1.30;;;;;;;;;;5000372;28;20069;-77
2024/01/16 07:28:39;;;;;;;5.22;1.58;;;;;;;;;;4981088;28;20037;-78
2024/01/16 07:31:05;;;;;;;6.85;1.80;;;;;;;;;;4996909;28;20146;-78
2024/01/16 07:33:30;;;;;;;5.35;1.38;;;;;;;;;;4996816;28;20510;-78
2024/01/16 07:35:55;;;;;;;6.55;1.30;;;;;;;;;;4997728;28;20038;-78
2024/01/16 07:38:20;;;;;;;4.53;1.77;;;;;;;;;;4998014;28;20026;-77
2024/01/16 07:40:45;;;;;;;4.97;1.70;;;;;;;;;;4984593;28;20045;-78
2024/01/16 07:43:11;;;;;;;3.60;1.30;;;;;;;;;;4995030;28;20034;-78
2024/01/16 07:45:36;;;;;;;4.00;1.20;;;;;;;;;;4971977;28;20134;-78
2024/01/16 07:48:02;;;;;;;3.17;1.05;;;;;;;;;;4997863;28;20037;-78
2024/01/16 07:50:27;;;;;;;8.13;1.65;;;;;;;;;;4996828;28;20816;-78
2024/01/16 07:52:52;;;;;;;3.83;1.40;;;;;;;;;;4983800;28;20068;-78
2024/01/16 07:55:18;;;;;;;8.43;1.77;;;;;;;;;;5001296;28;20034;-78
2024/01/16 07:57:43;;;;;;;5.20;1.33;;;;;;;;;;4976268;28;20052;-78
2024/01/16 08:00:11;;;;;;;4.65;1.20;;;;;;;;;;4997958;28;20145;-78
2024/01/16 08:02:37;;;;;;;7.30;1.80;;;;;;;;;;4996010;28;20030;-78
2024/01/16 08:05:02;;;;;;;3.97;1.20;;;;;;;;;;4982211;28;20116;-78
2024/01/16 08:07:28;;;;;;;4.65;1.13;;;;;;;;;;4981088;28;20056;-78
2024/01/16 08:09:53;;;;;;;4.95;1.42;;;;;;;;;;4999910;28;20452;-78
2024/01/16 08:12:18;;;;;;;6.22;2.00;;;;;;;;;;4994007;28;20096;-78
2024/01/16 08:14:44;;;;;;;5.60;1.27;;;;;;;;;;4994883;28;20057;-78
2024/01/16 08:17:09;;;;;;;3.83;1.20;;;;;;;;;;4981047;28;20069;-78
2024/01/16 08:19:34;;;;;;;9.18;1.90;;;;;;;;;;4994204;28;20057;-78
2024/01/16 08:21:59;;;;;;;6.07;1.42;;;;;;;;;;4999544;28;20034;-78
2024/01/16 08:24:24;;;;;;;5.47;1.70;;;;;;;;;;4995660;28;20035;-78
2024/01/16 08:26:49;;;;;;;6.40;1.38;;;;;;;;;;4982720;28;20034;-78
2024/01/16 08:29:15;;;;;;;6.60;1.35;;;;;;;;;;4984167;28;20054;-78
2024/01/16 08:31:40;;;;;;;6.15;1.80;;;;;;;;;;4999308;28;20038;-78
2024/01/16 08:34:05;;;;;;;5.52;1.58;;;;;;;;;;5000831;28;20045;-78
2024/01/16 08:36:30;;;;;;;5.47;1.85;;;;;;;;;;4981923;28;20038;-77
2024/01/16 08:38:56;;;;;;;6.55;1.95;;;;;;;;;;4999390;28;20045;-78
2024/01/16 08:41:21;;;;;;;5.35;2.25;;;;;;;;;;4994188;28;20026;-78
2024/01/16 08:43:46;;;;;;;7.05;2.22;;;;;;;;;;4998161;28;20031;-78
2024/01/16 08:46:11;;;;;;;11.45;2.28;;;;;;;;;;4985711;28;20038;-78
2024/01/16 08:48:36;;;;;;;7.07;1.52;;;;;;;;;;4988377;28;20030;-78
2024/01/16 08:51:05;;;;;;;9.38;1.80;;;;;;;;;;5002876;28;20050;-78
2024/01/16 08:53:30;;;;;;;6.28;1.23;;;;;;;;;;4972889;28;20030;-78
2024/01/16 08:55:55;;;;;;;5.88;1.38;;;;;;;;;;4996414;28;20621;-77
2024/01/16 08:58:21;;;;;;;7.32;1.65;;;;;;;;;;5000990;28;20403;-78
2024/01/16 09:00:46;;;;;;;7.63;1.98;;;;;;;;;;5001619;28;20081;-77
2024/01/16 09:03:12;;;;;;;7.63;1.90;;;;;;;;;;5002998;28;20503;-78
2024/01/16 09:05:38;;;;;;;6.15;2.13;;;;;;;;;;5003385;28;20117;-77
2024/01/16 09:08:04;;;;;;;6.32;2.13;;;;;;;;;;5004779;28;20030;-78
2024/01/16 09:10:30;;;;;;;7.20;2.90;;;;;;;;;;4999771;28;20049;-78
2024/01/16 09:12:55;;;;;;;6.82;2.45;;;;;;;;;;5000786;28;20126;-78
2024/01/16 09:15:20;;;;;;;7.18;2.80;;;;;;;;;;5001122;28;20125;-78
2024/01/16 09:17:45;;;;;;;6.80;1.80;;;;;;;;;;5003538;28;20034;-77
2024/01/16 09:20:10;;;;;;;7.47;1.77;;;;;;;;;;5003497;28;20053;-77
2024/01/16 09:22:36;;;;;;;6.15;1.75;;;;;;;;;;5004220;28;20046;-78
2024/01/16 09:25:01;;;;;;;6.75;2.05;;;;;;;;;;4999805;28;20034;-77
2024/01/16 09:27:26;;;;;;;5.95;2.63;;;;;;;;;;4999259;28;20026;-77
2024/01/16 09:29:52;;;;;;;8.75;2.05;;;;;;;;;;5002547;28;20058;-77
2024/01/16 09:32:18;;;;;;;8.65;2.80;;;;;;;;;;5002187;28;20410;-77
2024/01/16 09:34:44;;;;;;;7.28;2.55;;;;;;;;;;4994883;28;20517;-77
2024/01/16 09:37:09;;;;;;;5.97;1.90;;;;;;;;;;4997616;28;20049;-78
2024/01/16 09:39:37;;;;;;;9.65;2.20;;;;;;;;;;4999366;28;20034;-77
2024/01/16 09:42:03;;;;;;;6.10;1.83;;;;;;;;;;5001992;28;20040;-77
2024/01/16 09:44:29;;;;;;;8.65;2.33;;;;;;;;;;4999763;28;20564;-77
2024/01/16 09:46:55;;;;;;;8.55;2.30;;;;;;;;;;4996077;28;20045;-78
2024/01/16 09:49:20;;;;;;;7.22;2.35;;;;;;;;;;4983065;28;20061;-77
2024/01/16 09:51:46;;;;;;;9.98;2.53;;;;;;;;;;4987590;28;20030;-78
2024/01/16 09:54:11;;;;;;;7.68;2.22;;;;;;;;;;5002446;28;20034;-79
2024/01/16 09:56:41;;;;;;;6.30;2.22;;;;;;;;;;5002583;28;20022;-79
2024/01/16 09:59:08;;;;;;;6.50;2.35;;;;;;;;;;4979136;28;20061;-79
2024/01/16 10:01:34;;;;;;;7.40;1.90;;;;;;;;;;4986134;28;20049;-79
2024/01/16 10:03:59;;;;;;;7.72;2.60;;;;;;;;;;4970552;28;20030;-78
2024/01/16 10:06:26;;;;;;;7.90;3.65;;;;;;;;;;4970135;28;20034;-78
2024/01/16 10:08:52;;;;;;;11.20;3.67;;;;;;;;;;4999986;28;20077;-77
2024/01/16 10:11:17;;;;;;;10.43;2.58;;;;;;;;;;5000568;28;20030;-78
2024/01/16 10:13:43;;;;;;;7.82;2.60;;;;;;;;;;4997656;28;20536;-77
2024/01/16 10:16:09;;;;;;;10.25;2.67;;;;;;;;;;4970678;28;20118;-78
2024/01/16 10:18:34;;;;;;;8.23;2.60;;;;;;;;;;5001497;28;20122;-77
2024/01/16 10:20:59;;;;;;;12.65;2.90;;;;;;;;;;5001083;28;20398;-77
2024/01/16 10:23:28;;;;;;;10.48;2.47;;;;;;;;;;5000422;28;20073;-77
2024/01/16 10:26:06;;;;;;;8.48;3.00;;;;;;;;;;4998953;28;20038;-77
2024/01/16 10:28:32;;;;;;;10.38;2.97;;;;;;;;;;4969004;28;20471;-77
2024/01/16 10:31:02;;;;;;;10.48;2.40;;;;;;;;;;5003463;28;20494;-77
2024/01/16 10:33:27;;;;;;;7.55;3.30;;;;;;;;;;5001336;28;20117;-77
2024/01/16 10:36:06;;;;;;;6.57;2.72;;;;;;;;;;4985661;28;20121;-77
2024/01/16 10:38:32;;;;;;;7.68;2.30;;;;;;;;;;4983533;28;20502;-77
2024/01/16 10:41:04;;;;;;;6.93;2.33;;;;;;;;;;4986197;28;20034;-77
2024/01/16 10:43:29;;;;;;;6.35;2.25;;;;;;;;;;4993272;28;20050;-77
2024/01/16 10:46:06;;;;;;;9.68;2.65;;;;;;;;;;4994932;28;20073;-77
2024/01/16 10:48:31;;;;;;;6.32;2.45;;;;;;;;;;4994084;28;20041;-77
2024/01/16 10:50:57;;;;;;;7.40;2.28;;;;;;;;;;4985589;28;20034;-78
2024/01/16 10:53:25;;;;;;;11.32;2.60;;;;;;;;;;4991127;28;20550;-78
2024/01/16 10:55:53;;;;;;;7.78;2.25;;;;;;;;;;5000291;28;20045;-77
2024/01/16 10:58:22;;;;;;;9.20;2.47;;;;;;;;;;4997367;28;20044;-77
2024/01/16 11:00:50;;;;;;;7.20;2.00;;;;;;;;;;5001886;28;20116;-76
2024/01/16 11:03:24;;;;;;;7.25;2.55;;;;;;;;;;4996266;28;20064;-77
2024/01/16 11:05:49;;;;;;;8.35;2.42;;;;;;;;;;4996891;28;20029;-77
2024/01/16 11:08:16;;;;;;;7.35;2.60;;;;;;;;;;4999143;28;20034;-77
2024/01/16 11:10:42;;;;;;;6.57;2.55;;;;;;;;;;4962713;28;20667;-77
2024/01/16 11:13:09;;;;;;;7.68;2.20;;;;;;;;;;4998360;28;20038;-77
2024/01/16 11:15:34;;;;;;;9.15;2.35;;;;;;;;;;4996761;28;20025;-76
2024/01/16 11:18:01;;;;;;;8.30;2.63;;;;;;;;;;5000076;28;20439;-77
2024/01/16 11:20:27;;;;;;;6.72;2.38;;;;;;;;;;4995636;28;20566;-77
2024/01/16 11:22:59;;;;;;;8.80;2.83;;;;;;;;;;5002645;28;20113;-77
2024/01/16 11:25:30;;;;;;;6.72;2.45;;;;;;;;;;4979223;28;20038;-77
2024/01/16 11:28:13;;;;;;;5.90;2.03;;;;;;;;;;5101773;27;20405;-79
2024/01/16 11:30:39;;;;;;;8.38;2.80;;;;;;;;;;5116658;28;20020;-78
2024/01/16 11:33:06;;;;;;;6.28;2.35;;;;;;;;;;5097451;28;20040;-78
2024/01/16 11:35:39;;;;;;;6.15;2.60;;;;;;;;;;5096727;28;20028;-78
2024/01/16 11:38:06;;;;;;;5.65;1.98;;;;;;;;;;5089170;28;20040;-78
2024/01/16 11:40:32;;;;;;;8.20;2.15;;;;;;;;;;5094897;28;20492;-78
2024/01/16 11:42:57;;;;;;;6.72;2.05;;;;;;;;;;5090077;28;20036;-78
2024/01/16 11:45:31;;;;;;;8.50;2.67;;;;;;;;;;5089486;28;20075;-78
2024/01/16 11:48:11;;;;;;;7.22;2.30;;;;;;;;;;5090282;28;20047;-78
2024/01/16 11:50:37;;;;;;;8.90;2.30;;;;;;;;;;5099667;28;20388;-78
2024/01/16 11:53:02;;;;;;;7.60;2.10;;;;;;;;;;5094464;28;20028;-79
2024/01/16 11:55:27;;;;;;;7.18;2.58;;;;;;;;;;5096496;28;20518;-79
2024/01/16 11:58:05;;;;;;;7.02;2.36;;;;;;;;;;5089119;28;20027;-78
2024/01/16 12:00:32;;;;;;;8.40;2.38;;;;;;;;;;5096666;28;20036;-78
2024/01/16 12:03:00;;;;;;;5.93;2.17;;;;;;;;;;5090114;28;20500;-78
2024/01/16 12:05:26;;;;;;;5.70;2.50;;;;;;;;;;5096366;28;20042;-78
2024/01/16 12:07:52;;;;;;;5.28;2.20;;;;;;;;;;5094133;28;20377;-78
2024/01/16 12:10:18;;;;;;;8.77;2.30;;;;;;;;;;5098043;28;20493;-78
2024/01/16 12:12:44;;;;;;;7.90;2.25;;;;;;;;;;5089199;28;20028;-78
2024/01/16 12:15:16;;;;;;;7.60;3.03;;;;;;;;;;5090634;28;20066;-78
2024/01/16 12:17:58;;;;;;;6.32;2.45;;;;;;;;;;5095767;28;20032;-78
2024/01/16 12:20:24;;;;;;;10.05;2.80;;;;;;;;;;5098879;28;20044;-78
2024/01/16 12:23:00;;;;;;;9.68;2.60;;;;;;;;;;5093454;28;20024;-78
2024/01/16 12:25:25;;;;;;;7.55;2.20;;;;;;;;;;5091337;28;20123;-78
2024/01/16 12:27:55;;;;;;;7.38;2.58;;;;;;;;;;5090939;28;20109;-78
2024/01/16 12:30:20;;;;;;;9.02;2.85;;;;;;;;;;5092144;28;20024;-78
2024/01/16 12:32:45;;;;;;;6.55;2.33;;;;;;;;;;5088989;28;20040;-78
2024/01/16 12:35:11;;;;;;;5.95;2.72;;;;;;;;;;5087382;28;20039;-78
2024/01/16 12:37:36;;;;;;;5.95;2.10;;;;;;;;;;5085386;28;20033;-78
2024/01/16 12:40:01;;;;;;;7.50;2.58;;;;;;;;;;5084758;28;20036;-78
2024/01/16 12:42:27;;;;;;;7.15;2.42;;;;;;;;;;5075645;28;20074;-78
2024/01/16 12:44:52;;;;;;;7.80;2.17;;;;;;;;;;5073553;28;20400;-78
2024/01/16 12:47:19;;;;;;;7.88;2.83;;;;;;;;;;5073835;28;20041;-78
2024/01/16 12:49:44;;;;;;;7.60;2.08;;;;;;;;;;5077783;28;20021;-78
2024/01/16 12:52:20;;;;;;;7.38;2.80;;;;;;;;;;5074927;28;20082;-78
2024/01/16 12:54:45;;;;;;;8.55;3.33;;;;;;;;;;5081646;28;20025;-78
2024/01/16 12:57:16;;;;;;;6.75;2.28;;;;;;;;;;5082545;28;20879;-78
2024/01/16 12:59:41;;;;;;;6.45;2.70;;;;;;;;;;5081970;28;20104;-78
2024/01/16 13:02:06;;;;;;;8.75;2.80;;;;;;;;;;5080853;28;20040;-78
2024/01/16 13:04:32;;;;;;;6.88;2.30;;;;;;;;;;5082035;28;20047;-78
2024/01/16 13:07:01;;;;;;;7.85;2.35;;;;;;;;;;5081576;28;20086;-78
2024/01/16 13:09:26;;;;;;;8.07;2.28;;;;;;;;;;5078041;28;20047;-78
2024/01/16 13:11:58;;;;;;;7.32;2.20;;;;;;;;;;5078096;28;20577;-78
2024/01/16 13:14:23;;;;;;;7.63;2.65;;;;;;;;;;5074267;28;20106;-78
2024/01/16 13:16:49;;;;;;;5.28;2.20;;;;;;;;;;5077403;28;20063;-78
2024/01/16 13:19:19;;;;;;;6.75;2.60;;;;;;;;;;5081118;28;20028;-78
2024/01/16 13:21:44;;;;;;;7.82;2.20;;;;;;;;;;5073012;28;20038;-77
2024/01/16 13:24:09;;;;;;;7.30;2.05;;;;;;;;;;5072811;28;20119;-78
2024/01/16 13:26:35;;;;;;;8.18;2.20;;;;;;;;;;5073196;28;20021;-78
2024/01/16 13:29:00;;;;;;;8.13;2.10;;;;;;;;;;5079976;28;20028;-78
2024/01/16 13:31:26;;;;;;;9.13;2.70;;;;;;;;;;5078552;28;20051;-78
2024/01/16 13:33:51;;;;;;;8.20;2.33;;;;;;;;;;5072578;28;20507;-78
2024/01/16 13:36:16;;;;;;;5.43;2.40;;;;;;;;;;5071280;28;20029;-78
2024/01/16 13:38:42;;;;;;;5.38;1.90;;;;;;;;;;5077442;28;20542;-78
2024/01/16 13:41:07;;;;;;;7.75;2.58;;;;;;;;;;5075986;28;20396;-78
2024/01/16 13:43:32;;;;;;;5.22;2.42;;;;;;;;;;5072502;28;20025;-78
2024/01/16 13:45:57;;;;;;;5.28;2.10;;;;;;;;;;5072740;28;20039;-78
2024/01/16 13:48:23;;;;;;;6.50;2.20;;;;;;;;;;5072245;28;20430;-78
2024/01/16 13:50:48;;;;;;;6.88;2.10;;;;;;;;;;5074882;28;20028;-78
2024/01/16 13:53:13;;;;;;;6.20;2.40;;;;;;;;;;5077651;28;20040;-78
2024/01/16 13:55:41;;;;;;;6.47;2.20;;;;;;;;;;5078684;28;20036;-78
2024/01/16 13:58:07;;;;;;;5.85;2.67;;;;;;;;;;5080081;28;20043;-78
2024/01/16 14:00:32;;;;;;;6.50;2.30;;;;;;;;;;5081561;28;20032;-78
2024/01/16 14:02:58;;;;;;;5.78;2.17;;;;;;;;;;5080388;28;20120;-79
2024/01/16 14:05:23;;;;;;;9.35;3.08;;;;;;;;;;5073536;28;20035;-79
2024/01/16 14:07:52;;;;;;;7.45;2.35;;;;;;;;;;5070311;28;20551;-78
2024/01/16 14:10:21;;;;;;;6.57;2.42;;;;;;;;;;5075312;28;20565;-78
2024/01/16 14:12:49;;;;;;;5.70;2.35;;;;;;;;;;5070451;28;20032;-79
2024/01/16 14:15:16;;;;;;;6.68;2.00;;;;;;;;;;5070693;28;20030;-79
2024/01/16 14:17:44;;;;;;;6.72;2.28;;;;;;;;;;5070736;28;20036;-78
2024/01/16 14:20:11;;;;;;;7.45;2.90;;;;;;;;;;5074899;28;20040;-78
2024/01/16 14:22:37;;;;;;;7.78;2.50;;;;;;;;;;5078278;28;20039;-79
2024/01/16 14:25:04;;;;;;;9.73;3.50;;;;;;;;;;5071635;28;20037;-79
2024/01/16 14:27:29;;;;;;;9.05;2.92;;;;;;;;;;5072278;28;20108;-79
2024/01/16 14:29:54;;;;;;;7.90;2.80;;;;;;;;;;5075296;28;20472;-78
2024/01/16 14:32:20;;;;;;;7.10;2.45;;;;;;;;;;5071723;28;20033;-78
2024/01/16 14:34:45;;;;;;;7.95;3.33;;;;;;;;;;5071969;28;20035;-78
2024/01/16 14:37:11;;;;;;;5.07;2.30;;;;;;;;;;5058205;28;20025;-79